createdAt,value
2023-05-22T00:03:45.622Z,65.70
2023-05-22T00:08:50.757Z,65.80
2023-05-22T00:13:54.670Z,65.50
2023-05-22T00:18:58.690Z,65.60
2023-05-22T00:24:04.367Z,65.20
2023-05-22T00:29:07.926Z,65.00
2023-05-22T00:34:11.434Z,64.90
2023-05-22T00:39:16.989Z,65.00
2023-05-22T00:44:20.543Z,65.40
2023-05-22T00:49:24.300Z,65.30
2023-05-22T00:54:30.225Z,65.10
2023-05-22T00:59:34.023Z,65.00
2023-05-22T01:04:38.023Z,65.00
2023-05-22T01:09:42.953Z,65.00
2023-05-22T01:14:52.804Z,65.40
2023-05-22T01:20:07.732Z,64.90
2023-05-22T01:25:34.122Z,65.00
2023-05-22T01:30:48.441Z,64.80
2023-05-22T01:35:54.202Z,64.70
2023-05-22T01:40:58.312Z,64.80
2023-05-22T01:46:03.288Z,64.90
2023-05-22T01:51:10.905Z,64.70
2023-05-22T01:56:16.996Z,65.00
2023-05-22T02:01:22.761Z,64.90
2023-05-22T02:06:27.249Z,65.10
2023-05-22T02:11:33.025Z,65.30
2023-05-22T02:16:38.327Z,65.10
2023-05-22T02:21:42.044Z,65.00
2023-05-22T02:26:45.942Z,64.90
2023-05-22T02:31:50.893Z,65.30
2023-05-22T02:36:54.670Z,65.10
2023-05-22T02:41:58.164Z,65.20
2023-05-22T02:47:03.183Z,65.30
2023-05-22T02:52:06.969Z,65.30
2023-05-22T02:57:10.567Z,65.40
2023-05-22T03:02:16.837Z,65.40
2023-05-22T03:07:21.688Z,65.40
2023-05-22T03:12:25.284Z,65.50
2023-05-22T03:17:30.225Z,65.70
2023-05-22T03:22:33.769Z,65.60
2023-05-22T03:27:37.538Z,65.80
2023-05-22T03:32:42.440Z,65.70
2023-05-22T03:37:46.022Z,66.20
2023-05-22T03:42:50.278Z,65.80
2023-05-22T03:47:55.285Z,65.90
2023-05-22T03:52:58.873Z,65.90
2023-05-22T03:58:02.657Z,66.00
2023-05-22T04:03:13.058Z,66.00
2023-05-22T04:08:16.882Z,66.00
2023-05-22T04:13:20.537Z,66.20
2023-05-22T04:18:25.513Z,65.90
2023-05-22T04:23:29.065Z,65.60
2023-05-22T04:28:33.137Z,65.80
2023-05-22T04:33:38.854Z,65.80
2023-05-22T04:38:45.054Z,65.90
2023-05-22T04:43:48.819Z,66.00
2023-05-22T04:48:53.785Z,65.90
2023-05-22T04:53:58.572Z,66.00
2023-05-22T04:59:02.149Z,66.20
2023-05-22T05:04:07.297Z,66.00
2023-05-22T05:09:11.199Z,66.00
2023-05-22T05:14:14.729Z,65.80
2023-05-22T05:19:21.678Z,65.90
2023-05-22T05:24:25.436Z,65.80
2023-05-22T05:29:30.659Z,65.70
2023-05-22T05:34:35.748Z,65.70
2023-05-22T05:39:39.324Z,65.90
2023-05-22T05:44:43.681Z,65.80
2023-05-22T05:49:48.651Z,66.10
2023-05-22T05:54:52.205Z,65.80
2023-05-22T05:59:55.725Z,65.70
2023-05-22T06:05:00.907Z,65.60
2023-05-22T06:10:04.553Z,65.50
2023-05-22T06:15:08.934Z,65.90
2023-05-22T06:20:15.949Z,65.60
2023-05-22T06:25:19.555Z,65.70
2023-05-22T06:30:43.802Z,65.80
2023-05-22T06:35:48.053Z,65.90
2023-05-22T06:40:51.664Z,65.90
2023-05-22T06:45:55.229Z,65.90
2023-05-22T06:51:00.261Z,65.90
2023-05-22T06:56:03.836Z,66.10
2023-05-22T07:01:08.025Z,66.20
2023-05-22T07:06:13.650Z,66.20
2023-05-22T07:11:17.290Z,66.10
2023-05-22T07:16:21.040Z,66.10
2023-05-22T07:21:26.037Z,66.10
2023-05-22T07:26:30.258Z,66.30
2023-05-22T07:31:34.677Z,66.40
2023-05-22T07:36:40.386Z,66.30
2023-05-22T07:41:50.305Z,66.40
2023-05-22T07:46:54.711Z,66.50
2023-05-22T07:51:59.821Z,66.40
2023-05-22T07:57:04.012Z,66.70
2023-05-22T08:02:10.267Z,66.50
2023-05-22T08:07:15.348Z,66.60
2023-05-22T08:12:19.013Z,66.80
2023-05-22T08:17:22.737Z,66.70
2023-05-22T08:22:27.776Z,66.60
2023-05-22T08:27:31.314Z,66.70
2023-05-22T08:32:34.965Z,66.60
2023-05-22T08:37:39.921Z,66.90
2023-05-22T08:42:43.868Z,66.80
2023-05-22T08:47:48.993Z,66.50
2023-05-22T08:52:54.452Z,66.60
2023-05-22T08:57:58.583Z,66.50
2023-05-22T09:03:02.233Z,66.50
2023-05-22T09:08:18.939Z,66.60
2023-05-22T09:13:28.259Z,66.50
2023-05-22T09:18:32.055Z,66.90
2023-05-22T09:23:37.998Z,66.70
2023-05-22T09:28:41.577Z,66.70
2023-05-22T09:33:46.409Z,66.60
2023-05-22T09:38:51.477Z,66.60
2023-05-22T09:43:54.971Z,66.80
2023-05-22T09:48:58.517Z,66.60
2023-05-22T09:54:06.540Z,66.80
2023-05-22T09:59:10.899Z,66.70
2023-05-22T10:04:15.269Z,66.80
2023-05-22T10:09:23.441Z,66.70
2023-05-22T10:14:28.809Z,66.70
2023-05-22T10:19:33.589Z,66.70
2023-05-22T10:24:38.858Z,66.90
2023-05-22T10:29:48.250Z,66.80
2023-05-22T10:34:55.652Z,66.90
2023-05-22T10:40:05.104Z,66.60
2023-05-22T10:45:09.732Z,66.70
2023-05-22T10:50:13.650Z,66.80
2023-05-22T10:55:24.282Z,67.50
2023-05-22T11:00:31.778Z,67.30
2023-05-22T11:05:36.605Z,67.40
2023-05-22T11:10:59.357Z,67.50
2023-05-22T11:16:06.418Z,67.80
2023-05-22T11:21:13.790Z,67.80
2023-05-22T11:26:27.211Z,68.10
2023-05-22T11:31:31.809Z,68.30
2023-05-22T11:36:35.334Z,68.40
2023-05-22T11:41:40.322Z,68.30
2023-05-22T11:46:43.960Z,68.30
2023-05-22T11:51:50.856Z,68.40
2023-05-22T11:56:55.938Z,68.20
2023-05-22T12:01:59.805Z,68.30
2023-05-22T12:07:03.410Z,68.30
2023-05-22T12:12:11.635Z,68.40
2023-05-22T12:17:16.344Z,68.30
2023-05-22T12:22:23.356Z,68.60
2023-05-22T12:27:32.936Z,68.50
2023-05-22T12:32:37.329Z,68.60
2023-05-22T12:37:40.866Z,68.60
2023-05-22T12:42:46.270Z,68.50
2023-05-22T12:47:49.890Z,68.50
2023-05-22T12:52:53.623Z,68.80
2023-05-22T12:57:58.582Z,68.70
2023-05-22T13:03:03.137Z,68.50
2023-05-22T13:08:06.816Z,69.00
2023-05-22T13:13:11.750Z,69.00
2023-05-22T13:18:15.288Z,68.80
2023-05-22T13:23:18.777Z,69.10
2023-05-22T13:28:23.886Z,69.10
2023-05-22T13:33:27.451Z,69.40
2023-05-22T13:38:31.061Z,69.20
2023-05-22T13:43:35.970Z,67.90
2023-05-22T13:48:40.676Z,67.70
2023-05-22T13:53:44.291Z,68.70
2023-05-22T13:58:49.260Z,68.50
2023-05-22T14:03:52.946Z,68.40
2023-05-22T14:08:56.489Z,68.00
2023-05-22T14:14:01.434Z,68.20
2023-05-22T14:19:05.116Z,68.60
2023-05-22T14:24:08.952Z,68.90
2023-05-22T14:29:13.926Z,69.00
2023-05-22T14:34:18.153Z,69.30
2023-05-22T14:39:21.617Z,69.20
2023-05-22T14:44:26.488Z,69.20
2023-05-22T14:49:30.051Z,69.60
2023-05-22T14:54:34.389Z,69.80
2023-05-22T14:59:39.319Z,69.80
2023-05-22T15:04:42.960Z,69.50
2023-05-22T15:09:46.540Z,69.10
2023-05-22T15:14:51.500Z,69.60
2023-05-22T15:19:55.038Z,69.20
2023-05-22T15:25:05.900Z,68.90
2023-05-22T15:30:12.446Z,69.30
2023-05-22T15:35:16.243Z,69.50
2023-05-22T15:40:22.847Z,69.80
2023-05-22T15:45:27.801Z,69.60
2023-05-22T15:50:31.414Z,69.70
2023-05-22T15:55:35.238Z,69.40
2023-05-22T16:00:42.734Z,69.70
2023-05-22T16:05:47.342Z,69.60
2023-05-22T16:10:50.942Z,69.90
2023-05-22T16:15:56.180Z,70.30
2023-05-22T16:20:59.769Z,70.00
2023-05-22T16:26:03.317Z,70.30
2023-05-22T16:31:08.304Z,69.80
2023-05-22T16:36:11.908Z,70.20
2023-05-22T16:41:15.578Z,70.20
2023-05-22T16:46:20.838Z,70.50
2023-05-22T16:51:24.414Z,70.50
2023-05-22T16:56:28.276Z,70.40
2023-05-22T17:01:33.242Z,70.40
2023-05-22T17:06:36.909Z,70.60
2023-05-22T17:11:40.521Z,70.30
2023-05-22T17:16:45.464Z,70.30
2023-05-22T17:21:49.189Z,70.50
2023-05-22T17:26:52.770Z,71.20
2023-05-22T17:31:57.699Z,70.90
2023-05-22T17:37:01.321Z,71.20
2023-05-22T17:42:05.056Z,71.10
2023-05-22T17:47:10.054Z,71.80
2023-05-22T17:52:13.713Z,71.90
2023-05-22T17:57:17.388Z,72.10
2023-05-22T18:02:22.401Z,72.30
2023-05-22T18:07:26.266Z,72.60
2023-05-22T18:12:31.965Z,72.90
2023-05-22T18:17:37.351Z,72.90
2023-05-22T18:22:41.412Z,72.90
2023-05-22T18:27:44.952Z,73.20
2023-05-22T18:32:49.995Z,73.40
2023-05-22T18:37:53.604Z,73.30
2023-05-22T18:42:57.138Z,73.30
2023-05-22T18:48:02.093Z,73.50
2023-05-22T18:53:07.122Z,73.10
2023-05-22T18:58:11.524Z,73.50
2023-05-22T19:03:16.476Z,73.70
2023-05-22T19:08:20.450Z,73.50
2023-05-22T19:13:23.924Z,73.60
2023-05-22T19:18:28.955Z,73.50
2023-05-22T19:23:33.242Z,73.50
2023-05-22T19:28:36.791Z,73.70
2023-05-22T19:33:41.736Z,73.60
2023-05-22T19:38:45.369Z,73.30
2023-05-22T19:43:48.980Z,73.10
2023-05-22T19:48:53.961Z,73.20
2023-05-22T19:53:57.506Z,73.20
2023-05-22T19:59:01.091Z,73.50
2023-05-22T20:04:06.124Z,73.80
2023-05-22T20:09:10.163Z,73.60
2023-05-22T20:14:14.258Z,73.50
2023-05-22T20:19:19.364Z,73.50
2023-05-22T20:24:25.389Z,73.60
2023-05-22T20:29:28.914Z,73.30
2023-05-22T20:34:34.087Z,73.40
2023-05-22T20:39:38.009Z,73.40
2023-05-22T20:44:41.743Z,73.30
2023-05-22T20:49:46.696Z,73.50
2023-05-22T20:54:50.193Z,73.30
2023-05-22T20:59:54.217Z,73.50
2023-05-22T21:04:59.190Z,73.60
2023-05-22T21:10:02.915Z,73.40
2023-05-22T21:15:07.721Z,73.40
2023-05-22T21:20:13.305Z,73.60
2023-05-22T21:25:16.944Z,73.50
2023-05-22T21:30:20.605Z,74.00
2023-05-22T21:35:25.814Z,73.80
2023-05-22T21:40:29.426Z,73.90
2023-05-22T21:45:32.997Z,74.00
2023-05-22T21:50:38.120Z,73.70
2023-05-22T21:55:41.850Z,73.70
2023-05-22T22:00:45.428Z,73.80
2023-05-22T22:05:50.576Z,73.90
2023-05-22T22:10:54.199Z,73.70
2023-05-22T22:15:58.315Z,73.90
2023-05-22T22:21:03.445Z,73.90
2023-05-22T22:26:07.055Z,73.80
2023-05-22T22:31:10.594Z,73.90
2023-05-22T22:36:15.710Z,73.90
2023-05-22T22:41:19.282Z,73.90
2023-05-22T22:46:23.013Z,74.20
2023-05-22T22:51:28.059Z,74.00
2023-05-22T22:56:31.683Z,74.00
2023-05-22T23:01:35.254Z,73.80
2023-05-22T23:06:41.968Z,74.10
2023-05-22T23:11:45.527Z,74.30
2023-05-22T23:16:49.081Z,74.20
2023-05-22T23:21:54.040Z,74.10
2023-05-22T23:26:57.625Z,73.70
2023-05-22T23:32:01.250Z,74.00
2023-05-22T23:37:06.744Z,74.10
2023-05-22T23:42:11.217Z,73.80
2023-05-22T23:47:14.747Z,74.00
2023-05-22T23:52:19.684Z,74.20
2023-05-22T23:57:23.277Z,74.30
